sensor_id;sensor_type;location;lat;lon;timestamp;P1;durP1;ratioP1;P2;durP2;ratioP2
27003;SDS011;14546;47.590;19.022;2024-03-08T00:00:18;39.00;;;21.13;;
27003;SDS011;14546;47.590;19.022;2024-03-08T00:02:45;38.50;;;22.30;;
27003;SDS011;14546;47.590;19.022;2024-03-08T00:05:11;38.50;;;22.65;;
27003;SDS011;14546;47.590;19.022;2024-03-08T00:07:38;39.63;;;22.45;;
27003;SDS011;14546;47.590;19.022;2024-03-08T00:10:04;39.97;;;22.52;;
27003;SDS011;14546;47.590;19.022;2024-03-08T00:12:31;40.70;;;23.00;;
27003;SDS011;14546;47.590;19.022;2024-03-08T00:14:56;38.33;;;23.20;;
27003;SDS011;14546;47.590;19.022;2024-03-08T00:17:22;41.58;;;23.20;;
27003;SDS011;14546;47.590;19.022;2024-03-08T00:19:48;41.45;;;23.75;;
27003;SDS011;14546;47.590;19.022;2024-03-08T00:22:15;39.55;;;22.80;;
27003;SDS011;14546;47.590;19.022;2024-03-08T00:24:41;30.85;;;20.38;;
27003;SDS011;14546;47.590;19.022;2024-03-08T00:27:07;37.53;;;22.30;;
27003;SDS011;14546;47.590;19.022;2024-03-08T00:29:34;38.00;;;21.30;;
27003;SDS011;14546;47.590;19.022;2024-03-08T00:31:59;38.92;;;23.15;;
27003;SDS011;14546;47.590;19.022;2024-03-08T00:34:26;37.58;;;22.08;;
27003;SDS011;14546;47.590;19.022;2024-03-08T00:36:51;41.92;;;23.52;;
27003;SDS011;14546;47.590;19.022;2024-03-08T00:39:17;39.30;;;23.10;;
27003;SDS011;14546;47.590;19.022;2024-03-08T00:41:46;36.70;;;22.25;;
27003;SDS011;14546;47.590;19.022;2024-03-08T00:44:12;39.88;;;23.05;;
27003;SDS011;14546;47.590;19.022;2024-03-08T00:46:38;36.17;;;21.42;;
27003;SDS011;14546;47.590;19.022;2024-03-08T00:49:04;39.40;;;22.85;;
27003;SDS011;14546;47.590;19.022;2024-03-08T00:51:29;38.53;;;22.98;;
27003;SDS011;14546;47.590;19.022;2024-03-08T00:53:55;39.65;;;22.60;;
27003;SDS011;14546;47.590;19.022;2024-03-08T00:56:21;41.60;;;23.27;;
27003;SDS011;14546;47.590;19.022;2024-03-08T00:58:46;37.72;;;23.52;;
27003;SDS011;14546;47.590;19.022;2024-03-08T01:01:15;42.50;;;23.73;;
27003;SDS011;14546;47.590;19.022;2024-03-08T01:03:42;38.33;;;23.70;;
27003;SDS011;14546;47.590;19.022;2024-03-08T01:06:08;45.17;;;24.42;;
27003;SDS011;14546;47.590;19.022;2024-03-08T01:08:34;40.25;;;22.20;;
27003;SDS011;14546;47.590;19.022;2024-03-08T01:11:03;44.35;;;23.10;;
27003;SDS011;14546;47.590;19.022;2024-03-08T01:13:30;37.60;;;22.25;;
27003;SDS011;14546;47.590;19.022;2024-03-08T01:15:56;40.42;;;23.05;;
27003;SDS011;14546;47.590;19.022;2024-03-08T01:18:21;38.70;;;22.45;;
27003;SDS011;14546;47.590;19.022;2024-03-08T01:20:47;37.28;;;22.55;;
27003;SDS011;14546;47.590;19.022;2024-03-08T01:23:13;41.67;;;22.95;;
27003;SDS011;14546;47.590;19.022;2024-03-08T01:25:39;37.85;;;21.80;;
27003;SDS011;14546;47.590;19.022;2024-03-08T01:28:06;39.45;;;23.23;;
27003;SDS011;14546;47.590;19.022;2024-03-08T01:30:32;43.65;;;24.33;;
27003;SDS011;14546;47.590;19.022;2024-03-08T01:32:59;38.33;;;23.15;;
27003;SDS011;14546;47.590;19.022;2024-03-08T01:35:25;40.28;;;22.63;;
27003;SDS011;14546;47.590;19.022;2024-03-08T01:37:52;43.90;;;22.48;;
27003;SDS011;14546;47.590;19.022;2024-03-08T01:40:18;47.35;;;24.80;;
27003;SDS011;14546;47.590;19.022;2024-03-08T01:42:43;42.47;;;23.98;;
27003;SDS011;14546;47.590;19.022;2024-03-08T01:45:09;40.92;;;24.00;;
27003;SDS011;14546;47.590;19.022;2024-03-08T01:47:35;43.25;;;23.67;;
27003;SDS011;14546;47.590;19.022;2024-03-08T01:50:02;43.88;;;23.80;;
27003;SDS011;14546;47.590;19.022;2024-03-08T01:52:29;42.95;;;23.83;;
27003;SDS011;14546;47.590;19.022;2024-03-08T01:54:57;41.65;;;23.15;;
27003;SDS011;14546;47.590;19.022;2024-03-08T01:57:40;44.03;;;23.77;;
27003;SDS011;14546;47.590;19.022;2024-03-08T02:00:07;39.88;;;23.20;;
27003;SDS011;14546;47.590;19.022;2024-03-08T02:02:35;44.53;;;24.10;;
27003;SDS011;14546;47.590;19.022;2024-03-08T02:05:02;41.90;;;24.67;;
27003;SDS011;14546;47.590;19.022;2024-03-08T02:07:29;46.28;;;25.23;;
27003;SDS011;14546;47.590;19.022;2024-03-08T02:09:56;41.25;;;24.15;;
27003;SDS011;14546;47.590;19.022;2024-03-08T02:12:22;43.80;;;25.65;;
27003;SDS011;14546;47.590;19.022;2024-03-08T02:14:48;42.05;;;24.20;;
27003;SDS011;14546;47.590;19.022;2024-03-08T02:17:13;40.67;;;23.38;;
27003;SDS011;14546;47.590;19.022;2024-03-08T02:19:39;44.45;;;25.23;;
27003;SDS011;14546;47.590;19.022;2024-03-08T02:22:05;47.63;;;25.55;;
27003;SDS011;14546;47.590;19.022;2024-03-08T02:24:32;49.25;;;24.75;;
27003;SDS011;14546;47.590;19.022;2024-03-08T02:26:58;49.83;;;27.35;;
27003;SDS011;14546;47.590;19.022;2024-03-08T02:29:24;53.15;;;27.63;;
27003;SDS011;14546;47.590;19.022;2024-03-08T02:31:53;52.22;;;27.67;;
27003;SDS011;14546;47.590;19.022;2024-03-08T02:34:18;51.53;;;28.30;;
27003;SDS011;14546;47.590;19.022;2024-03-08T02:36:45;52.28;;;28.38;;
27003;SDS011;14546;47.590;19.022;2024-03-08T02:39:11;53.58;;;28.42;;
27003;SDS011;14546;47.590;19.022;2024-03-08T02:41:37;59.05;;;28.50;;
27003;SDS011;14546;47.590;19.022;2024-03-08T02:44:03;47.58;;;26.15;;
27003;SDS011;14546;47.590;19.022;2024-03-08T02:46:29;51.53;;;28.40;;
27003;SDS011;14546;47.590;19.022;2024-03-08T02:48:55;54.63;;;29.10;;
27003;SDS011;14546;47.590;19.022;2024-03-08T02:51:21;51.88;;;28.55;;
27003;SDS011;14546;47.590;19.022;2024-03-08T02:53:46;54.55;;;29.70;;
27003;SDS011;14546;47.590;19.022;2024-03-08T02:56:14;51.70;;;30.30;;
27003;SDS011;14546;47.590;19.022;2024-03-08T02:58:41;55.33;;;29.63;;
27003;SDS011;14546;47.590;19.022;2024-03-08T03:01:07;52.85;;;27.98;;
27003;SDS011;14546;47.590;19.022;2024-03-08T03:03:35;51.20;;;29.30;;
27003;SDS011;14546;47.590;19.022;2024-03-08T03:06:01;50.95;;;28.50;;
27003;SDS011;14546;47.590;19.022;2024-03-08T03:08:26;56.95;;;30.40;;
27003;SDS011;14546;47.590;19.022;2024-03-08T03:10:52;56.30;;;30.52;;
27003;SDS011;14546;47.590;19.022;2024-03-08T03:13:18;60.47;;;31.45;;
27003;SDS011;14546;47.590;19.022;2024-03-08T03:15:45;66.80;;;32.45;;
27003;SDS011;14546;47.590;19.022;2024-03-08T03:18:11;56.17;;;30.52;;
27003;SDS011;14546;47.590;19.022;2024-03-08T03:20:37;59.53;;;30.92;;
27003;SDS011;14546;47.590;19.022;2024-03-08T03:23:06;52.90;;;30.55;;
27003;SDS011;14546;47.590;19.022;2024-03-08T03:25:33;60.45;;;31.45;;
27003;SDS011;14546;47.590;19.022;2024-03-08T03:28:03;61.45;;;32.85;;
27003;SDS011;14546;47.590;19.022;2024-03-08T03:30:29;62.75;;;31.88;;
27003;SDS011;14546;47.590;19.022;2024-03-08T03:33:00;64.05;;;33.00;;
27003;SDS011;14546;47.590;19.022;2024-03-08T03:35:29;64.88;;;34.47;;
27003;SDS011;14546;47.590;19.022;2024-03-08T03:37:55;67.80;;;32.55;;
27003;SDS011;14546;47.590;19.022;2024-03-08T03:40:36;64.00;;;32.55;;
27003;SDS011;14546;47.590;19.022;2024-03-08T03:43:03;65.95;;;33.53;;
27003;SDS011;14546;47.590;19.022;2024-03-08T03:45:29;62.88;;;33.65;;
27003;SDS011;14546;47.590;19.022;2024-03-08T03:47:58;70.57;;;34.38;;
27003;SDS011;14546;47.590;19.022;2024-03-08T03:50:25;70.82;;;34.30;;
27003;SDS011;14546;47.590;19.022;2024-03-08T03:52:51;76.90;;;34.13;;
27003;SDS011;14546;47.590;19.022;2024-03-08T03:55:17;68.35;;;33.83;;
27003;SDS011;14546;47.590;19.022;2024-03-08T03:57:43;69.97;;;33.80;;
27003;SDS011;14546;47.590;19.022;2024-03-08T04:00:11;67.55;;;34.30;;
27003;SDS011;14546;47.590;19.022;2024-03-08T04:02:37;70.18;;;35.10;;
27003;SDS011;14546;47.590;19.022;2024-03-08T04:05:04;69.53;;;34.30;;
27003;SDS011;14546;47.590;19.022;2024-03-08T04:07:31;76.85;;;36.28;;
27003;SDS011;14546;47.590;19.022;2024-03-08T04:09:57;74.75;;;37.40;;
27003;SDS011;14546;47.590;19.022;2024-03-08T04:12:22;75.93;;;36.90;;
27003;SDS011;14546;47.590;19.022;2024-03-08T04:14:48;77.28;;;37.20;;
27003;SDS011;14546;47.590;19.022;2024-03-08T04:17:14;70.53;;;35.95;;
27003;SDS011;14546;47.590;19.022;2024-03-08T04:19:40;71.88;;;36.15;;
27003;SDS011;14546;47.590;19.022;2024-03-08T04:22:06;79.28;;;38.03;;
27003;SDS011;14546;47.590;19.022;2024-03-08T04:24:32;82.80;;;39.33;;
27003;SDS011;14546;47.590;19.022;2024-03-08T04:26:58;84.70;;;40.10;;
27003;SDS011;14546;47.590;19.022;2024-03-08T04:29:24;82.10;;;38.63;;
27003;SDS011;14546;47.590;19.022;2024-03-08T04:31:50;82.32;;;39.15;;
27003;SDS011;14546;47.590;19.022;2024-03-08T04:34:19;83.30;;;38.65;;
27003;SDS011;14546;47.590;19.022;2024-03-08T04:36:46;88.88;;;39.97;;
27003;SDS011;14546;47.590;19.022;2024-03-08T04:39:13;79.35;;;39.42;;
27003;SDS011;14546;47.590;19.022;2024-03-08T04:41:39;81.45;;;37.30;;
27003;SDS011;14546;47.590;19.022;2024-03-08T04:44:05;90.35;;;40.15;;
27003;SDS011;14546;47.590;19.022;2024-03-08T04:46:31;76.13;;;38.38;;
27003;SDS011;14546;47.590;19.022;2024-03-08T04:48:56;83.07;;;37.38;;
27003;SDS011;14546;47.590;19.022;2024-03-08T04:51:23;86.22;;;39.30;;
27003;SDS011;14546;47.590;19.022;2024-03-08T04:53:50;82.72;;;38.53;;
27003;SDS011;14546;47.590;19.022;2024-03-08T04:56:15;83.72;;;38.30;;
27003;SDS011;14546;47.590;19.022;2024-03-08T04:58:41;85.15;;;39.25;;
27003;SDS011;14546;47.590;19.022;2024-03-08T05:01:07;80.50;;;39.38;;
27003;SDS011;14546;47.590;19.022;2024-03-08T05:03:35;91.78;;;38.25;;
27003;SDS011;14546;47.590;19.022;2024-03-08T05:06:01;84.30;;;38.92;;
27003;SDS011;14546;47.590;19.022;2024-03-08T05:08:27;78.15;;;37.42;;
27003;SDS011;14546;47.590;19.022;2024-03-08T05:10:56;76.43;;;37.53;;
27003;SDS011;14546;47.590;19.022;2024-03-08T05:13:22;85.50;;;40.10;;
27003;SDS011;14546;47.590;19.022;2024-03-08T05:15:48;83.00;;;37.33;;
27003;SDS011;14546;47.590;19.022;2024-03-08T05:18:17;81.93;;;39.17;;
27003;SDS011;14546;47.590;19.022;2024-03-08T05:20:43;82.40;;;38.88;;
27003;SDS011;14546;47.590;19.022;2024-03-08T05:23:09;81.60;;;38.38;;
27003;SDS011;14546;47.590;19.022;2024-03-08T05:25:35;85.57;;;40.40;;
27003;SDS011;14546;47.590;19.022;2024-03-08T05:28:01;94.78;;;40.05;;
27003;SDS011;14546;47.590;19.022;2024-03-08T05:30:26;83.20;;;39.90;;
27003;SDS011;14546;47.590;19.022;2024-03-08T05:32:52;91.90;;;42.17;;
27003;SDS011;14546;47.590;19.022;2024-03-08T05:35:18;85.53;;;38.75;;
27003;SDS011;14546;47.590;19.022;2024-03-08T05:37:43;94.75;;;40.08;;
27003;SDS011;14546;47.590;19.022;2024-03-08T05:40:09;81.18;;;38.72;;
27003;SDS011;14546;47.590;19.022;2024-03-08T05:42:35;81.35;;;39.20;;
27003;SDS011;14546;47.590;19.022;2024-03-08T05:45:04;81.75;;;38.60;;
27003;SDS011;14546;47.590;19.022;2024-03-08T05:47:31;81.07;;;38.83;;
27003;SDS011;14546;47.590;19.022;2024-03-08T05:49:58;90.05;;;39.92;;
27003;SDS011;14546;47.590;19.022;2024-03-08T05:52:24;87.32;;;39.85;;
27003;SDS011;14546;47.590;19.022;2024-03-08T05:54:51;91.93;;;40.92;;
27003;SDS011;14546;47.590;19.022;2024-03-08T05:57:16;84.88;;;40.38;;
27003;SDS011;14546;47.590;19.022;2024-03-08T05:59:42;94.22;;;39.00;;
27003;SDS011;14546;47.590;19.022;2024-03-08T06:02:08;88.15;;;41.28;;
27003;SDS011;14546;47.590;19.022;2024-03-08T06:04:34;87.57;;;41.28;;
27003;SDS011;14546;47.590;19.022;2024-03-08T06:07:00;83.28;;;38.20;;
27003;SDS011;14546;47.590;19.022;2024-03-08T06:09:28;81.60;;;40.20;;
27003;SDS011;14546;47.590;19.022;2024-03-08T06:11:54;80.30;;;39.50;;
27003;SDS011;14546;47.590;19.022;2024-03-08T06:14:20;86.13;;;40.40;;
27003;SDS011;14546;47.590;19.022;2024-03-08T06:16:46;74.20;;;38.22;;
27003;SDS011;14546;47.590;19.022;2024-03-08T06:19:12;80.68;;;38.20;;
27003;SDS011;14546;47.590;19.022;2024-03-08T06:21:38;83.30;;;39.63;;
27003;SDS011;14546;47.590;19.022;2024-03-08T06:24:05;84.38;;;39.90;;
27003;SDS011;14546;47.590;19.022;2024-03-08T06:26:31;83.25;;;41.17;;
27003;SDS011;14546;47.590;19.022;2024-03-08T06:28:57;83.40;;;38.75;;
27003;SDS011;14546;47.590;19.022;2024-03-08T06:31:23;93.25;;;41.50;;
27003;SDS011;14546;47.590;19.022;2024-03-08T06:33:49;80.70;;;40.15;;
27003;SDS011;14546;47.590;19.022;2024-03-08T06:36:16;87.90;;;41.45;;
27003;SDS011;14546;47.590;19.022;2024-03-08T06:38:49;82.13;;;40.95;;
27003;SDS011;14546;47.590;19.022;2024-03-08T06:41:16;87.53;;;40.20;;
27003;SDS011;14546;47.590;19.022;2024-03-08T06:43:42;89.65;;;40.38;;
27003;SDS011;14546;47.590;19.022;2024-03-08T06:46:08;90.72;;;41.17;;
27003;SDS011;14546;47.590;19.022;2024-03-08T06:48:35;95.47;;;41.63;;
27003;SDS011;14546;47.590;19.022;2024-03-08T06:51:06;85.97;;;40.55;;
27003;SDS011;14546;47.590;19.022;2024-03-08T06:53:32;88.75;;;41.03;;
27003;SDS011;14546;47.590;19.022;2024-03-08T06:55:58;97.40;;;41.88;;
27003;SDS011;14546;47.590;19.022;2024-03-08T06:58:24;90.80;;;41.53;;
27003;SDS011;14546;47.590;19.022;2024-03-08T07:00:51;89.32;;;39.95;;
27003;SDS011;14546;47.590;19.022;2024-03-08T07:03:24;89.65;;;43.10;;
27003;SDS011;14546;47.590;19.022;2024-03-08T07:05:51;90.07;;;41.88;;
27003;SDS011;14546;47.590;19.022;2024-03-08T07:08:19;91.10;;;41.40;;
27003;SDS011;14546;47.590;19.022;2024-03-08T07:10:48;80.10;;;40.83;;
27003;SDS011;14546;47.590;19.022;2024-03-08T07:13:15;85.25;;;39.20;;
27003;SDS011;14546;47.590;19.022;2024-03-08T07:15:43;85.60;;;41.72;;
27003;SDS011;14546;47.590;19.022;2024-03-08T07:18:11;85.30;;;41.70;;
27003;SDS011;14546;47.590;19.022;2024-03-08T07:20:40;91.63;;;42.17;;
27003;SDS011;14546;47.590;19.022;2024-03-08T07:23:07;86.80;;;41.80;;
27003;SDS011;14546;47.590;19.022;2024-03-08T07:25:34;81.30;;;39.15;;
27003;SDS011;14546;47.590;19.022;2024-03-08T07:28:01;86.53;;;41.58;;
27003;SDS011;14546;47.590;19.022;2024-03-08T07:30:29;83.95;;;41.67;;
27003;SDS011;14546;47.590;19.022;2024-03-08T07:33:13;84.38;;;41.10;;
27003;SDS011;14546;47.590;19.022;2024-03-08T07:35:39;83.90;;;41.22;;
27003;SDS011;14546;47.590;19.022;2024-03-08T07:38:07;91.53;;;42.75;;
27003;SDS011;14546;47.590;19.022;2024-03-08T07:40:36;88.40;;;42.20;;
27003;SDS011;14546;47.590;19.022;2024-03-08T07:43:08;83.30;;;41.35;;
27003;SDS011;14546;47.590;19.022;2024-03-08T07:45:35;82.72;;;40.15;;
27003;SDS011;14546;47.590;19.022;2024-03-08T07:48:01;86.40;;;40.53;;
27003;SDS011;14546;47.590;19.022;2024-03-08T07:50:28;104.70;;;44.05;;
27003;SDS011;14546;47.590;19.022;2024-03-08T07:52:54;86.43;;;40.25;;
27003;SDS011;14546;47.590;19.022;2024-03-08T07:55:19;96.80;;;42.25;;
27003;SDS011;14546;47.590;19.022;2024-03-08T07:57:49;89.90;;;42.10;;
27003;SDS011;14546;47.590;19.022;2024-03-08T08:00:14;84.03;;;42.28;;
27003;SDS011;14546;47.590;19.022;2024-03-08T08:02:45;90.50;;;42.08;;
27003;SDS011;14546;47.590;19.022;2024-03-08T08:05:11;91.00;;;42.63;;
27003;SDS011;14546;47.590;19.022;2024-03-08T08:07:38;88.22;;;41.10;;
27003;SDS011;14546;47.590;19.022;2024-03-08T08:10:06;98.32;;;41.15;;
27003;SDS011;14546;47.590;19.022;2024-03-08T08:12:32;88.13;;;43.20;;
27003;SDS011;14546;47.590;19.022;2024-03-08T08:14:59;86.10;;;42.03;;
27003;SDS011;14546;47.590;19.022;2024-03-08T08:17:25;99.65;;;43.22;;
27003;SDS011;14546;47.590;19.022;2024-03-08T08:19:51;87.28;;;42.85;;
27003;SDS011;14546;47.590;19.022;2024-03-08T08:22:17;82.20;;;41.13;;
27003;SDS011;14546;47.590;19.022;2024-03-08T08:24:43;85.25;;;41.75;;
27003;SDS011;14546;47.590;19.022;2024-03-08T08:27:09;84.35;;;42.33;;
27003;SDS011;14546;47.590;19.022;2024-03-08T08:29:36;101.20;;;43.05;;
27003;SDS011;14546;47.590;19.022;2024-03-08T08:32:02;96.05;;;42.90;;
27003;SDS011;14546;47.590;19.022;2024-03-08T08:34:28;90.05;;;43.10;;
27003;SDS011;14546;47.590;19.022;2024-03-08T08:36:55;100.20;;;43.22;;
27003;SDS011;14546;47.590;19.022;2024-03-08T08:39:20;99.95;;;43.42;;
27003;SDS011;14546;47.590;19.022;2024-03-08T08:41:48;97.85;;;41.78;;
27003;SDS011;14546;47.590;19.022;2024-03-08T08:44:13;98.05;;;43.67;;
27003;SDS011;14546;47.590;19.022;2024-03-08T08:46:40;99.47;;;43.65;;
27003;SDS011;14546;47.590;19.022;2024-03-08T08:49:05;108.13;;;46.50;;
27003;SDS011;14546;47.590;19.022;2024-03-08T08:51:35;94.63;;;43.13;;
27003;SDS011;14546;47.590;19.022;2024-03-08T08:54:01;91.47;;;42.13;;
27003;SDS011;14546;47.590;19.022;2024-03-08T08:56:27;95.63;;;42.47;;
27003;SDS011;14546;47.590;19.022;2024-03-08T08:58:53;110.18;;;46.00;;
27003;SDS011;14546;47.590;19.022;2024-03-08T09:01:20;106.65;;;46.45;;
27003;SDS011;14546;47.590;19.022;2024-03-08T09:03:46;106.72;;;46.50;;
27003;SDS011;14546;47.590;19.022;2024-03-08T09:06:13;110.65;;;47.38;;
27003;SDS011;14546;47.590;19.022;2024-03-08T09:08:39;111.32;;;47.72;;
27003;SDS011;14546;47.590;19.022;2024-03-08T09:11:06;104.72;;;46.10;;
27003;SDS011;14546;47.590;19.022;2024-03-08T09:13:32;117.50;;;47.10;;
27003;SDS011;14546;47.590;19.022;2024-03-08T09:16:05;104.32;;;46.25;;
27003;SDS011;14546;47.590;19.022;2024-03-08T09:18:33;120.57;;;47.75;;
27003;SDS011;14546;47.590;19.022;2024-03-08T09:20:59;114.10;;;48.67;;
27003;SDS011;14546;47.590;19.022;2024-03-08T09:23:24;103.55;;;45.90;;
27003;SDS011;14546;47.590;19.022;2024-03-08T09:25:55;110.03;;;46.58;;
27003;SDS011;14546;47.590;19.022;2024-03-08T09:28:23;106.50;;;46.17;;
27003;SDS011;14546;47.590;19.022;2024-03-08T09:30:49;107.57;;;47.13;;
27003;SDS011;14546;47.590;19.022;2024-03-08T09:33:17;103.57;;;46.88;;
27003;SDS011;14546;47.590;19.022;2024-03-08T09:35:45;111.43;;;46.60;;
27003;SDS011;14546;47.590;19.022;2024-03-08T09:38:12;100.63;;;46.42;;
27003;SDS011;14546;47.590;19.022;2024-03-08T09:40:42;100.03;;;43.38;;
27003;SDS011;14546;47.590;19.022;2024-03-08T09:43:08;106.25;;;44.47;;
27003;SDS011;14546;47.590;19.022;2024-03-08T09:45:37;99.03;;;44.60;;
27003;SDS011;14546;47.590;19.022;2024-03-08T09:48:10;95.78;;;44.05;;
27003;SDS011;14546;47.590;19.022;2024-03-08T09:50:39;99.65;;;44.33;;
27003;SDS011;14546;47.590;19.022;2024-03-08T09:53:07;108.53;;;46.45;;
27003;SDS011;14546;47.590;19.022;2024-03-08T09:55:35;102.70;;;46.78;;
27003;SDS011;14546;47.590;19.022;2024-03-08T09:58:05;97.68;;;44.65;;
27003;SDS011;14546;47.590;19.022;2024-03-08T10:00:50;103.60;;;47.53;;
27003;SDS011;14546;47.590;19.022;2024-03-08T10:03:16;107.20;;;47.15;;
27003;SDS011;14546;47.590;19.022;2024-03-08T10:05:43;108.05;;;46.60;;
27003;SDS011;14546;47.590;19.022;2024-03-08T10:08:10;101.70;;;46.58;;
27003;SDS011;14546;47.590;19.022;2024-03-08T10:10:39;107.63;;;45.83;;
27003;SDS011;14546;47.590;19.022;2024-03-08T10:13:06;107.15;;;45.53;;
27003;SDS011;14546;47.590;19.022;2024-03-08T10:15:33;99.13;;;43.38;;
27003;SDS011;14546;47.590;19.022;2024-03-08T10:17:59;102.63;;;43.88;;
27003;SDS011;14546;47.590;19.022;2024-03-08T10:20:25;94.63;;;44.85;;
27003;SDS011;14546;47.590;19.022;2024-03-08T10:23:03;98.15;;;45.03;;
27003;SDS011;14546;47.590;19.022;2024-03-08T10:25:34;99.32;;;44.38;;
27003;SDS011;14546;47.590;19.022;2024-03-08T10:28:04;96.57;;;43.60;;
27003;SDS011;14546;47.590;19.022;2024-03-08T10:30:32;91.60;;;43.22;;
27003;SDS011;14546;47.590;19.022;2024-03-08T10:32:57;92.18;;;44.28;;
27003;SDS011;14546;47.590;19.022;2024-03-08T10:35:25;98.43;;;44.75;;
27003;SDS011;14546;47.590;19.022;2024-03-08T10:37:52;94.43;;;44.60;;
27003;SDS011;14546;47.590;19.022;2024-03-08T10:40:24;93.07;;;44.92;;
27003;SDS011;14546;47.590;19.022;2024-03-08T10:42:57;90.78;;;45.17;;
27003;SDS011;14546;47.590;19.022;2024-03-08T10:45:37;91.60;;;44.45;;
27003;SDS011;14546;47.590;19.022;2024-03-08T10:50:41;94.25;;;45.35;;
27003;SDS011;14546;47.590;19.022;2024-03-08T10:53:10;99.88;;;44.05;;
27003;SDS011;14546;47.590;19.022;2024-03-08T10:55:39;86.07;;;41.55;;
27003;SDS011;14546;47.590;19.022;2024-03-08T10:58:08;98.72;;;45.25;;
27003;SDS011;14546;47.590;19.022;2024-03-08T11:00:34;90.53;;;43.17;;
27003;SDS011;14546;47.590;19.022;2024-03-08T11:03:00;85.82;;;42.75;;
27003;SDS011;14546;47.590;19.022;2024-03-08T11:05:32;88.20;;;41.33;;
27003;SDS011;14546;47.590;19.022;2024-03-08T11:08:05;83.35;;;41.80;;
27003;SDS011;14546;47.590;19.022;2024-03-08T11:10:53;85.80;;;42.90;;
27003;SDS011;14546;47.590;19.022;2024-03-08T11:13:41;88.70;;;44.05;;
27003;SDS011;14546;47.590;19.022;2024-03-08T11:16:10;91.47;;;43.85;;
27003;SDS011;14546;47.590;19.022;2024-03-08T11:18:37;89.13;;;43.22;;
27003;SDS011;14546;47.590;19.022;2024-03-08T11:21:09;89.70;;;43.72;;
27003;SDS011;14546;47.590;19.022;2024-03-08T11:23:37;83.82;;;42.63;;
27003;SDS011;14546;47.590;19.022;2024-03-08T11:26:16;94.05;;;44.28;;
27003;SDS011;14546;47.590;19.022;2024-03-08T11:28:45;87.18;;;43.20;;
27003;SDS011;14546;47.590;19.022;2024-03-08T11:33:39;90.78;;;42.60;;
27003;SDS011;14546;47.590;19.022;2024-03-08T11:36:13;86.18;;;44.78;;
27003;SDS011;14546;47.590;19.022;2024-03-08T11:38:47;88.25;;;42.25;;
27003;SDS011;14546;47.590;19.022;2024-03-08T11:41:16;84.63;;;44.63;;
27003;SDS011;14546;47.590;19.022;2024-03-08T11:43:46;95.00;;;45.90;;
27003;SDS011;14546;47.590;19.022;2024-03-08T11:46:12;96.97;;;47.92;;
27003;SDS011;14546;47.590;19.022;2024-03-08T11:48:42;96.78;;;46.15;;
27003;SDS011;14546;47.590;19.022;2024-03-08T11:51:12;97.38;;;46.97;;
27003;SDS011;14546;47.590;19.022;2024-03-08T11:53:39;94.85;;;44.28;;
27003;SDS011;14546;47.590;19.022;2024-03-08T11:56:07;97.82;;;45.97;;
27003;SDS011;14546;47.590;19.022;2024-03-08T11:58:34;105.78;;;44.30;;
27003;SDS011;14546;47.590;19.022;2024-03-08T12:01:02;102.78;;;46.95;;
27003;SDS011;14546;47.590;19.022;2024-03-08T12:03:30;96.75;;;45.33;;
27003;SDS011;14546;47.590;19.022;2024-03-08T12:05:58;100.88;;;45.20;;
27003;SDS011;14546;47.590;19.022;2024-03-08T12:08:30;92.97;;;44.65;;
27003;SDS011;14546;47.590;19.022;2024-03-08T12:10:56;99.20;;;46.67;;
27003;SDS011;14546;47.590;19.022;2024-03-08T12:13:31;100.53;;;45.17;;
27003;SDS011;14546;47.590;19.022;2024-03-08T12:15:59;97.95;;;44.08;;
27003;SDS011;14546;47.590;19.022;2024-03-08T12:18:35;101.45;;;45.65;;
27003;SDS011;14546;47.590;19.022;2024-03-08T12:23:35;94.20;;;44.97;;
27003;SDS011;14546;47.590;19.022;2024-03-08T12:26:18;97.22;;;45.08;;
27003;SDS011;14546;47.590;19.022;2024-03-08T12:28:53;89.30;;;42.58;;
27003;SDS011;14546;47.590;19.022;2024-03-08T12:31:18;92.47;;;43.63;;
27003;SDS011;14546;47.590;19.022;2024-03-08T12:33:50;87.03;;;42.90;;
27003;SDS011;14546;47.590;19.022;2024-03-08T12:36:17;92.82;;;45.25;;
27003;SDS011;14546;47.590;19.022;2024-03-08T12:38:43;92.05;;;44.17;;
27003;SDS011;14546;47.590;19.022;2024-03-08T12:41:13;91.65;;;44.47;;
27003;SDS011;14546;47.590;19.022;2024-03-08T12:43:47;86.50;;;42.70;;
27003;SDS011;14546;47.590;19.022;2024-03-08T12:46:16;84.28;;;41.35;;
27003;SDS011;14546;47.590;19.022;2024-03-08T12:48:42;86.90;;;42.28;;
27003;SDS011;14546;47.590;19.022;2024-03-08T12:51:12;88.43;;;43.30;;
27003;SDS011;14546;47.590;19.022;2024-03-08T12:53:38;85.28;;;42.67;;
27003;SDS011;14546;47.590;19.022;2024-03-08T12:56:06;95.40;;;42.38;;
27003;SDS011;14546;47.590;19.022;2024-03-08T12:58:33;87.30;;;41.95;;
27003;SDS011;14546;47.590;19.022;2024-03-08T13:01:01;88.97;;;43.33;;
27003;SDS011;14546;47.590;19.022;2024-03-08T13:03:29;85.82;;;42.13;;
27003;SDS011;14546;47.590;19.022;2024-03-08T13:05:56;79.35;;;41.67;;
27003;SDS011;14546;47.590;19.022;2024-03-08T13:08:22;85.57;;;41.33;;
27003;SDS011;14546;47.590;19.022;2024-03-08T13:10:50;79.20;;;40.47;;
27003;SDS011;14546;47.590;19.022;2024-03-08T13:13:16;90.82;;;42.50;;
27003;SDS011;14546;47.590;19.022;2024-03-08T13:15:42;79.88;;;41.92;;
27003;SDS011;14546;47.590;19.022;2024-03-08T13:18:08;86.90;;;40.33;;
27003;SDS011;14546;47.590;19.022;2024-03-08T13:20:34;82.80;;;40.67;;
27003;SDS011;14546;47.590;19.022;2024-03-08T13:23:02;79.15;;;40.05;;
27003;SDS011;14546;47.590;19.022;2024-03-08T13:25:30;77.00;;;39.58;;
27003;SDS011;14546;47.590;19.022;2024-03-08T13:27:56;78.88;;;40.90;;
27003;SDS011;14546;47.590;19.022;2024-03-08T13:30:24;75.90;;;39.97;;
27003;SDS011;14546;47.590;19.022;2024-03-08T13:32:51;81.63;;;40.58;;
27003;SDS011;14546;47.590;19.022;2024-03-08T13:35:18;80.15;;;39.90;;
27003;SDS011;14546;47.590;19.022;2024-03-08T13:37:49;80.10;;;40.55;;
27003;SDS011;14546;47.590;19.022;2024-03-08T13:40:16;77.88;;;39.67;;
27003;SDS011;14546;47.590;19.022;2024-03-08T13:42:45;83.75;;;41.30;;
27003;SDS011;14546;47.590;19.022;2024-03-08T13:45:11;77.55;;;39.42;;
27003;SDS011;14546;47.590;19.022;2024-03-08T13:47:41;78.22;;;40.20;;
27003;SDS011;14546;47.590;19.022;2024-03-08T13:50:10;82.72;;;40.95;;
27003;SDS011;14546;47.590;19.022;2024-03-08T13:52:46;80.35;;;39.10;;
27003;SDS011;14546;47.590;19.022;2024-03-08T13:55:17;83.70;;;42.50;;
27003;SDS011;14546;47.590;19.022;2024-03-08T13:57:43;83.82;;;42.03;;
27003;SDS011;14546;47.590;19.022;2024-03-08T14:00:10;77.88;;;39.75;;
27003;SDS011;14546;47.590;19.022;2024-03-08T14:02:38;83.00;;;42.00;;
27003;SDS011;14546;47.590;19.022;2024-03-08T14:05:08;74.35;;;38.55;;
27003;SDS011;14546;47.590;19.022;2024-03-08T14:07:36;73.20;;;37.88;;
27003;SDS011;14546;47.590;19.022;2024-03-08T14:10:02;70.93;;;38.47;;
27003;SDS011;14546;47.590;19.022;2024-03-08T14:12:28;64.75;;;38.50;;
27003;SDS011;14546;47.590;19.022;2024-03-08T14:14:54;68.82;;;37.80;;
27003;SDS011;14546;47.590;19.022;2024-03-08T14:17:25;69.00;;;37.42;;